sensor_id;sensor_type;location;lat;lon;timestamp;pressure;altitude;pressure_sealevel;temperature;humidity
78839;BME280;68405;47.190;27.558;2024-02-21T00:02:15;100460.59;;;2.52;70.15
78839;BME280;68405;47.190;27.558;2024-02-21T00:04:45;100459.93;;;2.55;70.32
78839;BME280;68405;47.190;27.558;2024-02-21T00:07:15;100459.96;;;2.60;70.27
78839;BME280;68405;47.190;27.558;2024-02-21T00:09:45;100460.48;;;2.61;70.19
78839;BME280;68405;47.190;27.558;2024-02-21T00:12:14;100460.67;;;2.63;70.25
78839;BME280;68405;47.190;27.558;2024-02-21T00:14:53;100458.14;;;2.69;70.55
78839;BME280;68405;47.190;27.558;2024-02-21T00:17:25;100453.38;;;2.76;70.76
78839;BME280;68405;47.190;27.558;2024-02-21T00:19:55;100447.39;;;2.78;70.74
78839;BME280;68405;47.190;27.558;2024-02-21T00:22:25;100450.52;;;2.79;71.10
78839;BME280;68405;47.190;27.558;2024-02-21T00:24:57;100446.20;;;2.78;71.22
78839;BME280;68405;47.190;27.558;2024-02-21T00:27:31;100447.92;;;2.80;71.20
78839;BME280;68405;47.190;27.558;2024-02-21T00:30:01;100444.33;;;2.81;71.09
78839;BME280;68405;47.190;27.558;2024-02-21T00:32:31;100445.36;;;2.83;71.35
78839;BME280;68405;47.190;27.558;2024-02-21T00:35:07;100440.40;;;2.83;71.08
78839;BME280;68405;47.190;27.558;2024-02-21T00:37:40;100436.29;;;2.83;71.37
78839;BME280;68405;47.190;27.558;2024-02-21T00:40:12;100436.98;;;2.84;71.29
78839;BME280;68405;47.190;27.558;2024-02-21T00:42:41;100434.20;;;2.80;71.51
78839;BME280;68405;47.190;27.558;2024-02-21T00:45:12;100434.37;;;2.79;71.71
78839;BME280;68405;47.190;27.558;2024-02-21T00:47:41;100429.90;;;2.77;71.76
78839;BME280;68405;47.190;27.558;2024-02-21T00:50:14;100428.17;;;2.76;72.07
78839;BME280;68405;47.190;27.558;2024-02-21T00:52:43;100431.43;;;2.76;72.47
78839;BME280;68405;47.190;27.558;2024-02-21T00:55:13;100431.25;;;2.75;72.76
78839;BME280;68405;47.190;27.558;2024-02-21T00:57:43;100424.55;;;2.73;72.66
78839;BME280;68405;47.190;27.558;2024-02-21T01:00:16;100428.16;;;2.74;72.66
78839;BME280;68405;47.190;27.558;2024-02-21T01:02:48;100425.77;;;2.75;72.67
78839;BME280;68405;47.190;27.558;2024-02-21T01:05:18;100421.13;;;2.76;73.07
78839;BME280;68405;47.190;27.558;2024-02-21T01:07:53;100414.29;;;2.78;73.44
78839;BME280;68405;47.190;27.558;2024-02-21T01:10:26;100415.67;;;2.82;73.77
78839;BME280;68405;47.190;27.558;2024-02-21T01:12:59;100412.77;;;2.82;73.59
78839;BME280;68405;47.190;27.558;2024-02-21T01:15:43;100407.61;;;2.81;73.74
78839;BME280;68405;47.190;27.558;2024-02-21T01:18:33;100410.70;;;2.82;74.08
78839;BME280;68405;47.190;27.558;2024-02-21T01:21:09;100407.62;;;2.81;74.21
78839;BME280;68405;47.190;27.558;2024-02-21T01:23:41;100408.13;;;2.81;74.17
78839;BME280;68405;47.190;27.558;2024-02-21T01:26:11;100405.21;;;2.80;74.24
78839;BME280;68405;47.190;27.558;2024-02-21T01:29:28;100396.77;;;2.77;74.17
78839;BME280;68405;47.190;27.558;2024-02-21T01:32:04;100403.63;;;2.73;74.06
78839;BME280;68405;47.190;27.558;2024-02-21T01:34:33;100398.13;;;2.69;74.22
78839;BME280;68405;47.190;27.558;2024-02-21T01:37:08;100396.73;;;2.68;74.31
78839;BME280;68405;47.190;27.558;2024-02-21T01:39:43;100399.82;;;2.67;74.33
78839;BME280;68405;47.190;27.558;2024-02-21T01:45:03;100395.88;;;2.67;74.87
78839;BME280;68405;47.190;27.558;2024-02-21T01:47:56;100406.52;;;2.68;74.94
78839;BME280;68405;47.190;27.558;2024-02-21T01:50:35;100403.77;;;2.70;75.01
78839;BME280;68405;47.190;27.558;2024-02-21T01:53:05;100403.80;;;2.72;74.87
78839;BME280;68405;47.190;27.558;2024-02-21T01:55:36;100403.80;;;2.73;74.94
78839;BME280;68405;47.190;27.558;2024-02-21T01:58:06;100400.37;;;2.73;74.69
78839;BME280;68405;47.190;27.558;2024-02-21T02:00:41;100400.04;;;2.74;74.57
78839;BME280;68405;47.190;27.558;2024-02-21T02:03:11;100400.20;;;2.74;74.42
78839;BME280;68405;47.190;27.558;2024-02-21T02:05:49;100396.95;;;2.73;74.32
78839;BME280;68405;47.190;27.558;2024-02-21T02:08:19;100397.79;;;2.74;74.27
78839;BME280;68405;47.190;27.558;2024-02-21T02:10:51;100398.98;;;2.71;74.17
78839;BME280;68405;47.190;27.558;2024-02-21T02:13:21;100395.71;;;2.71;74.16
78839;BME280;68405;47.190;27.558;2024-02-21T02:15:51;100395.02;;;2.68;74.17
78839;BME280;68405;47.190;27.558;2024-02-21T02:18:21;100392.61;;;2.66;74.12
78839;BME280;68405;47.190;27.558;2024-02-21T02:20:51;100396.38;;;2.65;74.20
78839;BME280;68405;47.190;27.558;2024-02-21T02:23:29;100396.89;;;2.64;74.42
78839;BME280;68405;47.190;27.558;2024-02-21T02:25:58;100400.47;;;2.62;74.10
78839;BME280;68405;47.190;27.558;2024-02-21T02:28:32;100397.71;;;2.59;73.95
78839;BME280;68405;47.190;27.558;2024-02-21T02:31:03;100394.10;;;2.57;73.84
78839;BME280;68405;47.190;27.558;2024-02-21T02:33:44;100392.89;;;2.55;73.83
78839;BME280;68405;47.190;27.558;2024-02-21T02:36:17;100394.77;;;2.53;74.01
78839;BME280;68405;47.190;27.558;2024-02-21T02:38:49;100393.73;;;2.53;73.94
78839;BME280;68405;47.190;27.558;2024-02-21T02:41:21;100398.18;;;2.53;73.85
78839;BME280;68405;47.190;27.558;2024-02-21T02:43:51;100395.77;;;2.51;74.15
78839;BME280;68405;47.190;27.558;2024-02-21T02:46:20;100398.52;;;2.52;74.05
78839;BME280;68405;47.190;27.558;2024-02-21T02:48:50;100395.77;;;2.52;74.01
78839;BME280;68405;47.190;27.558;2024-02-21T02:51:21;100390.28;;;2.50;73.96
78839;BME280;68405;47.190;27.558;2024-02-21T02:53:51;100397.14;;;2.51;73.97
78839;BME280;68405;47.190;27.558;2024-02-21T02:56:21;100397.99;;;2.50;73.95
78839;BME280;68405;47.190;27.558;2024-02-21T02:58:50;100399.00;;;2.46;73.91
78839;BME280;68405;47.190;27.558;2024-02-21T03:01:20;100399.67;;;2.44;73.90
78839;BME280;68405;47.190;27.558;2024-02-21T03:03:49;100399.15;;;2.43;74.03
78839;BME280;68405;47.190;27.558;2024-02-21T03:06:19;100397.94;;;2.42;73.99
78839;BME280;68405;47.190;27.558;2024-02-21T03:08:49;100400.67;;;2.39;74.00
78839;BME280;68405;47.190;27.558;2024-02-21T03:11:23;100399.11;;;2.38;74.33
78839;BME280;68405;47.190;27.558;2024-02-21T03:13:57;100396.36;;;2.35;74.33
78839;BME280;68405;47.190;27.558;2024-02-21T03:16:27;100400.98;;;2.36;74.28
78839;BME280;68405;47.190;27.558;2024-02-21T03:18:57;100399.62;;;2.38;74.60
78839;BME280;68405;47.190;27.558;2024-02-21T03:21:27;100398.77;;;2.38;74.61
78839;BME280;68405;47.190;27.558;2024-02-21T03:23:57;100414.71;;;2.39;74.49
78839;BME280;68405;47.190;27.558;2024-02-21T03:26:27;100417.09;;;2.36;74.31
78839;BME280;68405;47.190;27.558;2024-02-21T03:28:56;100417.60;;;2.36;74.17
78839;BME280;68405;47.190;27.558;2024-02-21T03:31:26;100414.86;;;2.36;74.28
78839;BME280;68405;47.190;27.558;2024-02-21T03:33:56;100417.95;;;2.35;74.26
78839;BME280;68405;47.190;27.558;2024-02-21T03:36:26;100421.17;;;2.31;74.09
78839;BME280;68405;47.190;27.558;2024-02-21T03:38:58;100419.73;;;2.24;74.03
78839;BME280;68405;47.190;27.558;2024-02-21T03:41:28;100419.21;;;2.21;74.13
78839;BME280;68405;47.190;27.558;2024-02-21T03:43:58;100418.14;;;2.16;74.12
78839;BME280;68405;47.190;27.558;2024-02-21T03:47:04;100419.08;;;2.06;74.48
78839;BME280;68405;47.190;27.558;2024-02-21T03:49:44;100423.73;;;1.91;75.45
78839;BME280;68405;47.190;27.558;2024-02-21T03:52:13;100423.86;;;1.71;77.39
78839;BME280;68405;47.190;27.558;2024-02-21T04:00:13;100423.88;;;1.72;74.83
78839;BME280;68405;47.190;27.558;2024-02-21T04:03:06;100426.30;;;1.74;74.81
78839;BME280;68405;47.190;27.558;2024-02-21T04:05:36;100431.14;;;1.78;74.74
78839;BME280;68405;47.190;27.558;2024-02-21T04:08:33;100432.75;;;1.84;75.36
78839;BME280;68405;47.190;27.558;2024-02-21T04:11:12;100438.74;;;1.84;76.84
78839;BME280;68405;47.190;27.558;2024-02-21T04:13:42;100438.59;;;1.86;75.44
78839;BME280;68405;47.190;27.558;2024-02-21T04:16:12;100440.34;;;1.89;75.14
78839;BME280;68405;47.190;27.558;2024-02-21T04:18:44;100435.85;;;1.87;75.14
78839;BME280;68405;47.190;27.558;2024-02-21T04:21:16;100437.23;;;1.87;75.11
78839;BME280;68405;47.190;27.558;2024-02-21T04:23:50;100441.87;;;1.88;75.21
78839;BME280;68405;47.190;27.558;2024-02-21T04:26:19;100438.77;;;1.86;76.19
78839;BME280;68405;47.190;27.558;2024-02-21T04:28:49;100438.73;;;1.83;75.73
78839;BME280;68405;47.190;27.558;2024-02-21T04:31:19;100435.62;;;1.81;75.16
78839;BME280;68405;47.190;27.558;2024-02-21T04:33:49;100440.45;;;1.85;75.05
78839;BME280;68405;47.190;27.558;2024-02-21T04:36:18;100442.69;;;1.86;74.91
78839;BME280;68405;47.190;27.558;2024-02-21T04:38:52;100442.91;;;1.89;75.08
78839;BME280;68405;47.190;27.558;2024-02-21T04:41:22;100442.23;;;1.90;74.83
78839;BME280;68405;47.190;27.558;2024-02-21T04:43:52;100442.77;;;1.92;74.99
78839;BME280;68405;47.190;27.558;2024-02-21T04:46:28;100441.55;;;1.92;75.08
78839;BME280;68405;47.190;27.558;2024-02-21T04:49:05;100433.34;;;1.92;75.17
78839;BME280;68405;47.190;27.558;2024-02-21T04:51:43;100432.61;;;1.88;75.03
78839;BME280;68405;47.190;27.558;2024-02-21T04:54:13;100435.98;;;1.84;75.05
78839;BME280;68405;47.190;27.558;2024-02-21T04:56:46;100436.17;;;1.84;75.05
78839;BME280;68405;47.190;27.558;2024-02-21T04:59:24;100434.29;;;1.84;74.92
78839;BME280;68405;47.190;27.558;2024-02-21T05:01:59;100438.89;;;1.82;75.58
78839;BME280;68405;47.190;27.558;2024-02-21T05:04:31;100445.01;;;1.79;75.68
78839;BME280;68405;47.190;27.558;2024-02-21T05:07:02;100446.90;;;1.77;75.30
78839;BME280;68405;47.190;27.558;2024-02-21T05:09:31;100442.96;;;1.78;75.23
78839;BME280;68405;47.190;27.558;2024-02-21T05:12:04;100442.61;;;1.77;75.16
78839;BME280;68405;47.190;27.558;2024-02-21T05:14:34;100441.77;;;1.79;75.47
78839;BME280;68405;47.190;27.558;2024-02-21T05:23:03;100445.38;;;1.97;75.09
78839;BME280;68405;47.190;27.558;2024-02-21T05:25:33;100444.75;;;2.04;75.13
78839;BME280;68405;47.190;27.558;2024-02-21T05:28:04;100444.65;;;2.11;75.28
78839;BME280;68405;47.190;27.558;2024-02-21T05:30:50;100438.23;;;2.19;75.00
78839;BME280;68405;47.190;27.558;2024-02-21T05:33:27;100442.08;;;2.30;74.87
78839;BME280;68405;47.190;27.558;2024-02-21T05:36:00;100447.81;;;2.39;75.02
78839;BME280;68405;47.190;27.558;2024-02-21T05:44:40;100446.45;;;2.64;74.98
78839;BME280;68405;47.190;27.558;2024-02-21T05:47:16;100458.70;;;2.75;75.06
78839;BME280;68405;47.190;27.558;2024-02-21T05:49:49;100460.15;;;2.87;74.97
78839;BME280;68405;47.190;27.558;2024-02-21T05:52:22;100461.81;;;3.05;74.95
78839;BME280;68405;47.190;27.558;2024-02-21T05:55:17;100464.11;;;3.18;74.66
78839;BME280;68405;47.190;27.558;2024-02-21T05:57:48;100462.44;;;3.28;74.48
78839;BME280;68405;47.190;27.558;2024-02-21T06:00:19;100459.55;;;3.37;74.35
78839;BME280;68405;47.190;27.558;2024-02-21T06:02:49;100463.39;;;3.52;74.47
78839;BME280;68405;47.190;27.558;2024-02-21T06:11:25;100460.45;;;4.23;74.00
78839;BME280;68405;47.190;27.558;2024-02-21T06:13:55;100467.34;;;4.53;74.26
78839;BME280;68405;47.190;27.558;2024-02-21T06:23:00;100471.02;;;5.68;72.51
78839;BME280;68405;47.190;27.558;2024-02-21T06:25:29;100475.60;;;5.83;72.76
78839;BME280;68405;47.190;27.558;2024-02-21T06:28:12;100473.86;;;5.87;72.10
78839;BME280;68405;47.190;27.558;2024-02-21T06:31:17;100481.23;;;5.95;72.29
78839;BME280;68405;47.190;27.558;2024-02-21T06:33:50;100485.36;;;6.01;72.97
78839;BME280;68405;47.190;27.558;2024-02-21T06:39:37;100488.00;;;5.85;73.28
78839;BME280;68405;47.190;27.558;2024-02-21T06:42:06;100487.48;;;5.88;73.03
78839;BME280;68405;47.190;27.558;2024-02-21T06:44:41;100484.07;;;5.79;72.31
78839;BME280;68405;47.190;27.558;2024-02-21T06:47:14;100482.55;;;5.72;72.61
78839;BME280;68405;47.190;27.558;2024-02-21T06:49:43;100487.02;;;5.72;72.32
78839;BME280;68405;47.190;27.558;2024-02-21T06:52:20;100489.44;;;5.71;72.11
78839;BME280;68405;47.190;27.558;2024-02-21T06:54:54;100490.64;;;5.75;72.58
78839;BME280;68405;47.190;27.558;2024-02-21T07:43:42;100510.89;;;8.59;68.85
78839;BME280;68405;47.190;27.558;2024-02-21T10:45:03;100476.08;;;17.02;48.83
78839;BME280;68405;47.190;27.558;2024-02-21T10:47:39;100473.85;;;19.15;43.61
78839;BME280;68405;47.190;27.558;2024-02-21T10:56:31;100464.49;;;24.54;40.11
78839;BME280;68405;47.190;27.558;2024-02-21T10:59:32;100460.08;;;25.52;39.61
78839;BME280;68405;47.190;27.558;2024-02-21T11:02:23;100459.62;;;26.64;38.75
78839;BME280;68405;47.190;27.558;2024-02-21T16:15:07;100292.61;;;7.77;51.50
78839;BME280;68405;47.190;27.558;2024-02-21T16:17:42;100297.04;;;7.70;52.77
78839;BME280;68405;47.190;27.558;2024-02-21T16:37:43;100306.45;;;7.43;52.96
78839;BME280;68405;47.190;27.558;2024-02-21T17:08:25;100300.27;;;7.39;55.50
78839;BME280;68405;47.190;27.558;2024-02-21T17:22:26;100297.52;;;7.38;55.46
78839;BME280;68405;47.190;27.558;2024-02-21T17:27:57;100303.58;;;7.38;54.98
78839;BME280;68405;47.190;27.558;2024-02-21T19:28:32;100297.48;;;7.29;60.97
78839;BME280;68405;47.190;27.558;2024-02-21T19:31:17;100290.57;;;7.30;60.72
78839;BME280;68405;47.190;27.558;2024-02-21T20:21:23;100267.13;;;6.45;62.75
78839;BME280;68405;47.190;27.558;2024-02-21T21:47:20;100223.57;;;5.83;66.37
